Terminal Aerodrome Forecast
Issued by NWS Boston, MA

Home | Current Version | Previous Version | Text Only | Print | Product List | Glossary On
Versions: 1 2 3 4 5 6 7 8 9 10 11 12 13 14 15 16 17 18 19 20 21 22 23 24 25 26 27 28 29 30 31 32 33 34 35 36 37 38 39 40 41 42 43 44 45 46 47 48 49 50
000
FTUS41 KBOX 310105 AAB
TAFBOS
TAF AMD
KBOS 310105Z 3101/0106 09009KT P6SM VCSH FEW020 SCT060 OVC100
     FM310400 19005KT P6SM VCSH OVC100
     FM310700 20004KT P6SM VCSH OVC050
     FM311000 VRB03KT P6SM VCSH OVC025
     FM311500 10005KT P6SM VCSH OVC015
     FM312000 10006KT P6SM VCSH OVC040=

USA.gov is the U.S. government's official web portal to all federal, state and local government web resources and services.